sensor_id;sensor_type;location;lat;lon;timestamp;P1;durP1;ratioP1;P2;durP2;ratioP2
7669;SDS011;3877;42.562;27.636;2023-06-14T00:01:21;3.33;;;2.72;;
7669;SDS011;3877;42.562;27.636;2023-06-14T00:03:47;4.27;;;2.53;;
7669;SDS011;3877;42.562;27.636;2023-06-14T00:06:14;3.08;;;2.65;;
7669;SDS011;3877;42.562;27.636;2023-06-14T00:08:41;3.25;;;2.60;;
7669;SDS011;3877;42.562;27.636;2023-06-14T00:11:08;3.80;;;2.60;;
7669;SDS011;3877;42.562;27.636;2023-06-14T00:13:36;3.03;;;2.40;;
7669;SDS011;3877;42.562;27.636;2023-06-14T00:16:03;5.13;;;2.72;;
7669;SDS011;3877;42.562;27.636;2023-06-14T00:18:30;2.80;;;2.40;;
7669;SDS011;3877;42.562;27.636;2023-06-14T00:20:57;4.70;;;2.58;;
7669;SDS011;3877;42.562;27.636;2023-06-14T00:23:24;2.65;;;2.45;;
7669;SDS011;3877;42.562;27.636;2023-06-14T00:25:51;3.05;;;2.63;;
7669;SDS011;3877;42.562;27.636;2023-06-14T00:28:18;3.40;;;2.63;;
7669;SDS011;3877;42.562;27.636;2023-06-14T00:30:47;3.20;;;2.65;;
7669;SDS011;3877;42.562;27.636;2023-06-14T00:33:13;3.55;;;2.70;;
7669;SDS011;3877;42.562;27.636;2023-06-14T00:35:40;3.55;;;2.65;;
7669;SDS011;3877;42.562;27.636;2023-06-14T00:38:07;3.13;;;2.53;;
7669;SDS011;3877;42.562;27.636;2023-06-14T00:40:33;3.55;;;2.53;;
7669;SDS011;3877;42.562;27.636;2023-06-14T00:43:00;4.17;;;2.40;;
7669;SDS011;3877;42.562;27.636;2023-06-14T00:45:27;4.95;;;3.03;;
7669;SDS011;3877;42.562;27.636;2023-06-14T00:47:58;2.60;;;2.40;;
7669;SDS011;3877;42.562;27.636;2023-06-14T00:50:25;4.45;;;2.78;;
7669;SDS011;3877;42.562;27.636;2023-06-14T00:52:52;4.47;;;3.25;;
7669;SDS011;3877;42.562;27.636;2023-06-14T00:55:19;2.70;;;2.50;;
7669;SDS011;3877;42.562;27.636;2023-06-14T00:57:46;4.07;;;2.70;;
7669;SDS011;3877;42.562;27.636;2023-06-14T01:00:13;8.07;;;3.00;;
7669;SDS011;3877;42.562;27.636;2023-06-14T01:02:40;3.47;;;3.00;;
7669;SDS011;3877;42.562;27.636;2023-06-14T01:05:09;3.03;;;2.72;;
7669;SDS011;3877;42.562;27.636;2023-06-14T01:07:41;3.65;;;2.90;;
7669;SDS011;3877;42.562;27.636;2023-06-14T01:10:13;5.97;;;3.03;;
7669;SDS011;3877;42.562;27.636;2023-06-14T01:12:44;3.70;;;2.97;;
7669;SDS011;3877;42.562;27.636;2023-06-14T01:15:14;5.28;;;3.38;;
7669;SDS011;3877;42.562;27.636;2023-06-14T01:17:41;5.70;;;2.83;;
7669;SDS011;3877;42.562;27.636;2023-06-14T01:20:12;6.45;;;3.10;;
7669;SDS011;3877;42.562;27.636;2023-06-14T01:22:47;5.80;;;2.75;;
7669;SDS011;3877;42.562;27.636;2023-06-14T01:25:14;3.42;;;2.80;;
7669;SDS011;3877;42.562;27.636;2023-06-14T01:27:41;3.60;;;3.20;;
7669;SDS011;3877;42.562;27.636;2023-06-14T01:30:08;6.30;;;3.00;;
7669;SDS011;3877;42.562;27.636;2023-06-14T01:32:36;4.47;;;2.90;;
7669;SDS011;3877;42.562;27.636;2023-06-14T01:35:04;5.43;;;3.27;;
7669;SDS011;3877;42.562;27.636;2023-06-14T01:37:31;7.85;;;2.70;;
7669;SDS011;3877;42.562;27.636;2023-06-14T01:40:00;5.60;;;3.10;;
7669;SDS011;3877;42.562;27.636;2023-06-14T01:42:27;5.60;;;2.87;;
7669;SDS011;3877;42.562;27.636;2023-06-14T01:44:54;6.85;;;2.90;;
7669;SDS011;3877;42.562;27.636;2023-06-14T01:47:21;7.35;;;3.10;;
7669;SDS011;3877;42.562;27.636;2023-06-14T01:49:48;2.95;;;2.72;;
7669;SDS011;3877;42.562;27.636;2023-06-14T01:52:15;5.82;;;2.95;;
7669;SDS011;3877;42.562;27.636;2023-06-14T01:54:41;3.13;;;2.83;;
7669;SDS011;3877;42.562;27.636;2023-06-14T01:57:10;5.77;;;2.80;;
7669;SDS011;3877;42.562;27.636;2023-06-14T01:59:37;3.53;;;2.95;;
7669;SDS011;3877;42.562;27.636;2023-06-14T02:02:04;3.65;;;2.83;;
7669;SDS011;3877;42.562;27.636;2023-06-14T02:04:30;6.70;;;3.42;;
7669;SDS011;3877;42.562;27.636;2023-06-14T02:06:58;6.65;;;3.22;;
7669;SDS011;3877;42.562;27.636;2023-06-14T02:09:24;4.80;;;3.05;;
7669;SDS011;3877;42.562;27.636;2023-06-14T02:11:51;6.47;;;3.80;;
7669;SDS011;3877;42.562;27.636;2023-06-14T02:14:20;5.55;;;3.88;;
7669;SDS011;3877;42.562;27.636;2023-06-14T02:16:46;4.13;;;3.70;;
7669;SDS011;3877;42.562;27.636;2023-06-14T02:19:15;4.32;;;3.72;;
7669;SDS011;3877;42.562;27.636;2023-06-14T02:21:42;5.35;;;4.22;;
7669;SDS011;3877;42.562;27.636;2023-06-14T02:24:08;9.60;;;5.40;;
7669;SDS011;3877;42.562;27.636;2023-06-14T02:26:35;7.63;;;5.18;;
7669;SDS011;3877;42.562;27.636;2023-06-14T02:29:03;9.95;;;6.15;;
7669;SDS011;3877;42.562;27.636;2023-06-14T02:31:32;9.02;;;6.70;;
7669;SDS011;3877;42.562;27.636;2023-06-14T02:33:58;8.77;;;7.40;;
7669;SDS011;3877;42.562;27.636;2023-06-14T02:36:25;9.05;;;7.30;;
7669;SDS011;3877;42.562;27.636;2023-06-14T02:38:52;8.52;;;7.20;;
7669;SDS011;3877;42.562;27.636;2023-06-14T02:41:19;7.13;;;5.97;;
7669;SDS011;3877;42.562;27.636;2023-06-14T02:43:46;6.65;;;5.55;;
7669;SDS011;3877;42.562;27.636;2023-06-14T02:46:12;12.07;;;5.53;;
7669;SDS011;3877;42.562;27.636;2023-06-14T02:48:41;8.85;;;5.13;;
7669;SDS011;3877;42.562;27.636;2023-06-14T02:51:08;8.15;;;5.28;;
7669;SDS011;3877;42.562;27.636;2023-06-14T02:53:35;8.25;;;4.90;;
7669;SDS011;3877;42.562;27.636;2023-06-14T02:56:01;6.85;;;4.93;;
7669;SDS011;3877;42.562;27.636;2023-06-14T02:58:29;8.27;;;4.53;;
7669;SDS011;3877;42.562;27.636;2023-06-14T03:00:56;12.53;;;4.20;;
7669;SDS011;3877;42.562;27.636;2023-06-14T03:03:22;9.30;;;4.70;;
7669;SDS011;3877;42.562;27.636;2023-06-14T03:05:51;9.95;;;4.70;;
7669;SDS011;3877;42.562;27.636;2023-06-14T03:08:19;9.30;;;4.65;;
7669;SDS011;3877;42.562;27.636;2023-06-14T03:10:46;6.53;;;4.18;;
7669;SDS011;3877;42.562;27.636;2023-06-14T03:13:14;7.28;;;4.25;;
7669;SDS011;3877;42.562;27.636;2023-06-14T03:15:41;6.93;;;3.80;;
7669;SDS011;3877;42.562;27.636;2023-06-14T03:18:10;7.45;;;4.30;;
7669;SDS011;3877;42.562;27.636;2023-06-14T03:20:37;4.68;;;4.03;;
7669;SDS011;3877;42.562;27.636;2023-06-14T03:23:05;6.68;;;3.80;;
7669;SDS011;3877;42.562;27.636;2023-06-14T03:25:32;7.68;;;4.50;;
7669;SDS011;3877;42.562;27.636;2023-06-14T03:28:00;5.07;;;3.47;;
7669;SDS011;3877;42.562;27.636;2023-06-14T03:30:27;5.80;;;3.70;;
7669;SDS011;3877;42.562;27.636;2023-06-14T03:32:54;5.77;;;3.83;;
7669;SDS011;3877;42.562;27.636;2023-06-14T03:35:21;7.10;;;4.00;;
7669;SDS011;3877;42.562;27.636;2023-06-14T03:37:48;4.78;;;3.60;;
7669;SDS011;3877;42.562;27.636;2023-06-14T03:40:18;6.97;;;3.90;;
7669;SDS011;3877;42.562;27.636;2023-06-14T03:42:45;7.32;;;4.00;;
7669;SDS011;3877;42.562;27.636;2023-06-14T03:45:12;3.95;;;3.55;;
7669;SDS011;3877;42.562;27.636;2023-06-14T03:47:39;4.65;;;4.13;;
7669;SDS011;3877;42.562;27.636;2023-06-14T03:50:06;6.60;;;4.10;;
7669;SDS011;3877;42.562;27.636;2023-06-14T03:52:33;6.10;;;3.70;;
7669;SDS011;3877;42.562;27.636;2023-06-14T03:55:02;7.55;;;4.03;;
7669;SDS011;3877;42.562;27.636;2023-06-14T03:57:30;5.57;;;3.83;;
7669;SDS011;3877;42.562;27.636;2023-06-14T03:59:57;6.10;;;4.05;;
7669;SDS011;3877;42.562;27.636;2023-06-14T04:02:24;9.05;;;3.53;;
7669;SDS011;3877;42.562;27.636;2023-06-14T04:04:51;4.45;;;3.60;;
7669;SDS011;3877;42.562;27.636;2023-06-14T04:07:19;7.97;;;3.88;;
7669;SDS011;3877;42.562;27.636;2023-06-14T04:09:46;5.97;;;3.72;;
7669;SDS011;3877;42.562;27.636;2023-06-14T04:12:13;5.28;;;3.65;;
7669;SDS011;3877;42.562;27.636;2023-06-14T04:14:42;5.00;;;3.85;;
7669;SDS011;3877;42.562;27.636;2023-06-14T04:17:09;7.88;;;3.85;;
7669;SDS011;3877;42.562;27.636;2023-06-14T04:19:35;5.50;;;4.10;;
7669;SDS011;3877;42.562;27.636;2023-06-14T04:22:03;6.50;;;4.30;;
7669;SDS011;3877;42.562;27.636;2023-06-14T04:24:29;7.05;;;4.40;;
7669;SDS011;3877;42.562;27.636;2023-06-14T04:26:57;6.75;;;4.25;;
7669;SDS011;3877;42.562;27.636;2023-06-14T04:29:24;7.55;;;4.03;;
7669;SDS011;3877;42.562;27.636;2023-06-14T04:31:53;4.80;;;3.78;;
7669;SDS011;3877;42.562;27.636;2023-06-14T04:34:24;10.93;;;4.40;;
7669;SDS011;3877;42.562;27.636;2023-06-14T04:36:54;6.45;;;4.20;;
7669;SDS011;3877;42.562;27.636;2023-06-14T04:39:21;7.75;;;4.25;;
7669;SDS011;3877;42.562;27.636;2023-06-14T04:41:48;11.07;;;4.50;;
7669;SDS011;3877;42.562;27.636;2023-06-14T04:44:18;9.68;;;4.85;;
7669;SDS011;3877;42.562;27.636;2023-06-14T04:46:45;6.32;;;4.55;;
7669;SDS011;3877;42.562;27.636;2023-06-14T04:49:13;5.88;;;4.30;;
7669;SDS011;3877;42.562;27.636;2023-06-14T04:51:41;6.47;;;4.07;;
7669;SDS011;3877;42.562;27.636;2023-06-14T04:54:07;4.20;;;3.75;;
7669;SDS011;3877;42.562;27.636;2023-06-14T04:56:35;6.97;;;3.97;;
7669;SDS011;3877;42.562;27.636;2023-06-14T04:59:02;4.75;;;3.38;;
7669;SDS011;3877;42.562;27.636;2023-06-14T05:01:29;9.73;;;3.63;;
7669;SDS011;3877;42.562;27.636;2023-06-14T05:03:56;6.05;;;4.05;;
7669;SDS011;3877;42.562;27.636;2023-06-14T05:06:25;10.13;;;3.72;;
7669;SDS011;3877;42.562;27.636;2023-06-14T05:08:52;6.10;;;3.83;;
7669;SDS011;3877;42.562;27.636;2023-06-14T05:11:19;8.18;;;4.10;;
7669;SDS011;3877;42.562;27.636;2023-06-14T05:13:46;8.45;;;3.50;;
7669;SDS011;3877;42.562;27.636;2023-06-14T05:16:13;7.82;;;3.65;;
7669;SDS011;3877;42.562;27.636;2023-06-14T05:18:41;5.95;;;3.50;;
7669;SDS011;3877;42.562;27.636;2023-06-14T05:21:07;4.32;;;3.70;;
7669;SDS011;3877;42.562;27.636;2023-06-14T05:23:36;5.68;;;3.55;;
7669;SDS011;3877;42.562;27.636;2023-06-14T05:26:02;10.60;;;4.10;;
7669;SDS011;3877;42.562;27.636;2023-06-14T05:28:30;10.60;;;3.90;;
7669;SDS011;3877;42.562;27.636;2023-06-14T05:30:57;12.88;;;3.97;;
7669;SDS011;3877;42.562;27.636;2023-06-14T05:33:24;6.55;;;3.42;;
7669;SDS011;3877;42.562;27.636;2023-06-14T05:35:51;11.75;;;3.80;;
7669;SDS011;3877;42.562;27.636;2023-06-14T05:38:17;12.40;;;4.20;;
7669;SDS011;3877;42.562;27.636;2023-06-14T05:40:46;8.90;;;3.50;;
7669;SDS011;3877;42.562;27.636;2023-06-14T05:43:13;8.38;;;3.88;;
7669;SDS011;3877;42.562;27.636;2023-06-14T05:45:40;15.45;;;4.38;;
7669;SDS011;3877;42.562;27.636;2023-06-14T05:48:06;13.40;;;3.97;;
7669;SDS011;3877;42.562;27.636;2023-06-14T05:50:33;13.20;;;4.22;;
7669;SDS011;3877;42.562;27.636;2023-06-14T05:53:00;6.70;;;3.88;;
7669;SDS011;3877;42.562;27.636;2023-06-14T05:55:26;9.07;;;5.63;;
7669;SDS011;3877;42.562;27.636;2023-06-14T05:57:55;5.68;;;3.38;;
7669;SDS011;3877;42.562;27.636;2023-06-14T06:00:21;7.55;;;3.90;;
7669;SDS011;3877;42.562;27.636;2023-06-14T06:02:48;41.35;;;7.35;;
7669;SDS011;3877;42.562;27.636;2023-06-14T06:05:15;7.32;;;3.65;;
7669;SDS011;3877;42.562;27.636;2023-06-14T06:07:42;5.10;;;3.50;;
7669;SDS011;3877;42.562;27.636;2023-06-14T06:10:10;8.48;;;4.00;;
7669;SDS011;3877;42.562;27.636;2023-06-14T06:12:37;9.93;;;3.83;;
7669;SDS011;3877;42.562;27.636;2023-06-14T06:15:06;6.25;;;3.55;;
7669;SDS011;3877;42.562;27.636;2023-06-14T06:17:32;7.45;;;3.78;;
7669;SDS011;3877;42.562;27.636;2023-06-14T06:20:00;12.85;;;4.30;;
7669;SDS011;3877;42.562;27.636;2023-06-14T06:22:27;6.72;;;4.25;;
7669;SDS011;3877;42.562;27.636;2023-06-14T06:24:53;9.00;;;4.53;;
7669;SDS011;3877;42.562;27.636;2023-06-14T06:27:20;10.93;;;4.53;;
7669;SDS011;3877;42.562;27.636;2023-06-14T06:29:47;6.07;;;4.00;;
7669;SDS011;3877;42.562;27.636;2023-06-14T06:32:29;12.13;;;4.93;;
7669;SDS011;3877;42.562;27.636;2023-06-14T06:34:55;12.45;;;5.03;;
7669;SDS011;3877;42.562;27.636;2023-06-14T06:37:22;9.65;;;4.20;;
7669;SDS011;3877;42.562;27.636;2023-06-14T06:39:49;5.88;;;4.45;;
7669;SDS011;3877;42.562;27.636;2023-06-14T06:42:16;6.00;;;4.22;;
7669;SDS011;3877;42.562;27.636;2023-06-14T06:44:42;8.15;;;4.43;;
7669;SDS011;3877;42.562;27.636;2023-06-14T06:47:09;10.98;;;4.38;;
7669;SDS011;3877;42.562;27.636;2023-06-14T06:49:37;16.30;;;5.57;;
7669;SDS011;3877;42.562;27.636;2023-06-14T06:52:05;6.68;;;4.25;;
7669;SDS011;3877;42.562;27.636;2023-06-14T06:54:32;10.57;;;4.25;;
7669;SDS011;3877;42.562;27.636;2023-06-14T06:57:00;8.35;;;4.25;;
7669;SDS011;3877;42.562;27.636;2023-06-14T06:59:27;6.43;;;4.20;;
7669;SDS011;3877;42.562;27.636;2023-06-14T07:01:54;8.23;;;3.90;;
7669;SDS011;3877;42.562;27.636;2023-06-14T07:04:21;6.03;;;4.05;;
7669;SDS011;3877;42.562;27.636;2023-06-14T07:06:49;9.77;;;4.30;;
7669;SDS011;3877;42.562;27.636;2023-06-14T07:09:16;9.02;;;4.00;;
7669;SDS011;3877;42.562;27.636;2023-06-14T07:11:45;5.15;;;4.10;;
7669;SDS011;3877;42.562;27.636;2023-06-14T07:14:12;7.90;;;4.20;;
7669;SDS011;3877;42.562;27.636;2023-06-14T07:16:39;7.00;;;4.30;;
7669;SDS011;3877;42.562;27.636;2023-06-14T07:19:06;9.07;;;4.43;;
7669;SDS011;3877;42.562;27.636;2023-06-14T07:21:33;6.18;;;3.90;;
7669;SDS011;3877;42.562;27.636;2023-06-14T07:24:01;11.50;;;4.18;;
7669;SDS011;3877;42.562;27.636;2023-06-14T07:26:28;9.93;;;3.85;;
7669;SDS011;3877;42.562;27.636;2023-06-14T07:28:54;9.05;;;4.72;;
7669;SDS011;3877;42.562;27.636;2023-06-14T07:31:21;5.70;;;3.92;;
7669;SDS011;3877;42.562;27.636;2023-06-14T07:33:48;8.27;;;3.85;;
7669;SDS011;3877;42.562;27.636;2023-06-14T07:36:14;11.15;;;4.47;;
7669;SDS011;3877;42.562;27.636;2023-06-14T07:38:43;9.27;;;4.22;;
7669;SDS011;3877;42.562;27.636;2023-06-14T07:41:11;6.75;;;4.38;;
7669;SDS011;3877;42.562;27.636;2023-06-14T07:43:38;6.20;;;4.03;;
7669;SDS011;3877;42.562;27.636;2023-06-14T07:46:05;44.28;;;5.70;;
7669;SDS011;3877;42.562;27.636;2023-06-14T07:48:33;15.70;;;4.20;;
7669;SDS011;3877;42.562;27.636;2023-06-14T07:51:00;12.48;;;4.38;;
7669;SDS011;3877;42.562;27.636;2023-06-14T07:53:27;9.30;;;4.03;;
7669;SDS011;3877;42.562;27.636;2023-06-14T07:55:54;7.53;;;4.10;;
7669;SDS011;3877;42.562;27.636;2023-06-14T07:58:22;10.32;;;4.30;;
7669;SDS011;3877;42.562;27.636;2023-06-14T08:00:49;10.05;;;4.22;;
7669;SDS011;3877;42.562;27.636;2023-06-14T08:03:16;12.55;;;4.70;;
7669;SDS011;3877;42.562;27.636;2023-06-14T08:05:43;7.03;;;4.10;;
7669;SDS011;3877;42.562;27.636;2023-06-14T08:08:10;7.60;;;4.03;;
7669;SDS011;3877;42.562;27.636;2023-06-14T08:10:37;12.13;;;4.13;;
7669;SDS011;3877;42.562;27.636;2023-06-14T08:13:05;17.85;;;11.50;;
7669;SDS011;3877;42.562;27.636;2023-06-14T08:15:33;12.18;;;4.05;;
7669;SDS011;3877;42.562;27.636;2023-06-14T08:18:00;7.03;;;3.90;;
7669;SDS011;3877;42.562;27.636;2023-06-14T08:20:27;10.05;;;3.90;;
7669;SDS011;3877;42.562;27.636;2023-06-14T08:22:56;6.95;;;4.05;;
7669;SDS011;3877;42.562;27.636;2023-06-14T08:25:23;8.10;;;3.53;;
7669;SDS011;3877;42.562;27.636;2023-06-14T08:27:50;6.90;;;4.53;;
7669;SDS011;3877;42.562;27.636;2023-06-14T08:30:16;7.90;;;4.07;;
7669;SDS011;3877;42.562;27.636;2023-06-14T08:32:45;6.20;;;4.00;;
7669;SDS011;3877;42.562;27.636;2023-06-14T08:35:11;7.40;;;3.90;;
7669;SDS011;3877;42.562;27.636;2023-06-14T08:37:39;6.20;;;3.90;;
7669;SDS011;3877;42.562;27.636;2023-06-14T08:40:07;5.40;;;3.85;;
7669;SDS011;3877;42.562;27.636;2023-06-14T08:42:41;4.65;;;3.78;;
7669;SDS011;3877;42.562;27.636;2023-06-14T08:45:08;5.60;;;3.67;;
7669;SDS011;3877;42.562;27.636;2023-06-14T08:47:35;5.55;;;3.60;;
7669;SDS011;3877;42.562;27.636;2023-06-14T08:50:04;8.93;;;3.88;;
7669;SDS011;3877;42.562;27.636;2023-06-14T08:52:31;8.27;;;4.15;;
7669;SDS011;3877;42.562;27.636;2023-06-14T08:55:00;9.07;;;4.00;;
7669;SDS011;3877;42.562;27.636;2023-06-14T08:57:27;7.63;;;3.80;;
7669;SDS011;3877;42.562;27.636;2023-06-14T08:59:57;6.00;;;3.80;;
7669;SDS011;3877;42.562;27.636;2023-06-14T09:02:26;6.22;;;4.05;;
7669;SDS011;3877;42.562;27.636;2023-06-14T09:04:53;5.72;;;3.88;;
7669;SDS011;3877;42.562;27.636;2023-06-14T09:07:26;8.63;;;3.78;;
7669;SDS011;3877;42.562;27.636;2023-06-14T09:10:04;7.20;;;4.15;;
7669;SDS011;3877;42.562;27.636;2023-06-14T09:12:31;7.65;;;4.05;;
7669;SDS011;3877;42.562;27.636;2023-06-14T09:14:58;8.88;;;4.40;;
7669;SDS011;3877;42.562;27.636;2023-06-14T09:17:25;6.35;;;3.90;;
7669;SDS011;3877;42.562;27.636;2023-06-14T09:19:52;5.47;;;4.30;;
7669;SDS011;3877;42.562;27.636;2023-06-14T09:22:21;5.85;;;3.80;;
7669;SDS011;3877;42.562;27.636;2023-06-14T09:24:49;5.72;;;5.10;;
7669;SDS011;3877;42.562;27.636;2023-06-14T09:27:16;7.30;;;4.03;;
7669;SDS011;3877;42.562;27.636;2023-06-14T09:29:43;6.30;;;3.60;;
7669;SDS011;3877;42.562;27.636;2023-06-14T09:32:10;7.25;;;4.07;;
7669;SDS011;3877;42.562;27.636;2023-06-14T09:34:37;6.78;;;4.10;;
7669;SDS011;3877;42.562;27.636;2023-06-14T09:37:04;11.95;;;4.40;;
7669;SDS011;3877;42.562;27.636;2023-06-14T09:39:31;5.30;;;4.03;;
7669;SDS011;3877;42.562;27.636;2023-06-14T09:41:59;6.13;;;3.97;;
7669;SDS011;3877;42.562;27.636;2023-06-14T09:44:26;9.88;;;4.20;;
7669;SDS011;3877;42.562;27.636;2023-06-14T09:46:55;6.85;;;4.10;;
7669;SDS011;3877;42.562;27.636;2023-06-14T09:49:22;7.20;;;3.85;;
7669;SDS011;3877;42.562;27.636;2023-06-14T09:51:50;14.27;;;4.20;;
7669;SDS011;3877;42.562;27.636;2023-06-14T09:54:20;10.70;;;4.15;;
7669;SDS011;3877;42.562;27.636;2023-06-14T09:56:48;7.30;;;4.00;;
7669;SDS011;3877;42.562;27.636;2023-06-14T09:59:20;5.38;;;4.00;;
7669;SDS011;3877;42.562;27.636;2023-06-14T10:01:52;7.15;;;4.20;;
7669;SDS011;3877;42.562;27.636;2023-06-14T10:04:24;6.55;;;4.47;;
7669;SDS011;3877;42.562;27.636;2023-06-14T10:06:50;8.93;;;4.25;;
7669;SDS011;3877;42.562;27.636;2023-06-14T10:09:19;5.95;;;3.60;;
7669;SDS011;3877;42.562;27.636;2023-06-14T10:11:47;12.93;;;3.92;;
7669;SDS011;3877;42.562;27.636;2023-06-14T10:14:14;4.75;;;3.58;;
7669;SDS011;3877;42.562;27.636;2023-06-14T10:16:45;6.07;;;3.30;;
7669;SDS011;3877;42.562;27.636;2023-06-14T10:19:16;11.32;;;4.30;;
7669;SDS011;3877;42.562;27.636;2023-06-14T10:21:54;7.07;;;3.85;;
7669;SDS011;3877;42.562;27.636;2023-06-14T10:24:23;7.10;;;3.90;;
7669;SDS011;3877;42.562;27.636;2023-06-14T10:26:56;6.28;;;3.70;;
7669;SDS011;3877;42.562;27.636;2023-06-14T10:29:23;5.28;;;3.78;;
7669;SDS011;3877;42.562;27.636;2023-06-14T10:31:56;4.75;;;3.42;;
7669;SDS011;3877;42.562;27.636;2023-06-14T10:34:23;5.20;;;3.78;;
7669;SDS011;3877;42.562;27.636;2023-06-14T10:37:03;4.18;;;3.38;;
7669;SDS011;3877;42.562;27.636;2023-06-14T10:39:31;8.55;;;3.78;;
7669;SDS011;3877;42.562;27.636;2023-06-14T10:41:57;5.18;;;3.58;;
7669;SDS011;3877;42.562;27.636;2023-06-14T10:44:33;6.35;;;3.95;;
7669;SDS011;3877;42.562;27.636;2023-06-14T10:47:01;9.85;;;3.83;;
7669;SDS011;3877;42.562;27.636;2023-06-14T10:52:13;5.57;;;3.85;;
7669;SDS011;3877;42.562;27.636;2023-06-14T10:54:59;5.30;;;4.18;;
7669;SDS011;3877;42.562;27.636;2023-06-14T10:57:26;5.20;;;3.72;;
7669;SDS011;3877;42.562;27.636;2023-06-14T10:59:53;10.38;;;4.28;;
7669;SDS011;3877;42.562;27.636;2023-06-14T11:02:34;5.95;;;3.50;;
7669;SDS011;3877;42.562;27.636;2023-06-14T11:05:08;4.53;;;3.50;;
7669;SDS011;3877;42.562;27.636;2023-06-14T11:07:37;5.18;;;3.55;;
7669;SDS011;3877;42.562;27.636;2023-06-14T11:10:10;5.47;;;3.88;;
7669;SDS011;3877;42.562;27.636;2023-06-14T11:12:39;6.97;;;3.70;;
7669;SDS011;3877;42.562;27.636;2023-06-14T11:15:08;5.85;;;3.50;;
7669;SDS011;3877;42.562;27.636;2023-06-14T11:17:36;6.30;;;3.28;;
7669;SDS011;3877;42.562;27.636;2023-06-14T11:20:09;11.60;;;3.83;;
7669;SDS011;3877;42.562;27.636;2023-06-14T11:22:39;5.45;;;3.72;;
7669;SDS011;3877;42.562;27.636;2023-06-14T11:25:08;8.63;;;3.42;;
7669;SDS011;3877;42.562;27.636;2023-06-14T11:27:35;9.30;;;4.07;;
7669;SDS011;3877;42.562;27.636;2023-06-14T11:30:02;5.32;;;3.58;;
7669;SDS011;3877;42.562;27.636;2023-06-14T11:32:30;4.10;;;3.40;;
7669;SDS011;3877;42.562;27.636;2023-06-14T11:34:59;4.50;;;3.40;;
7669;SDS011;3877;42.562;27.636;2023-06-14T11:37:26;5.13;;;3.33;;
7669;SDS011;3877;42.562;27.636;2023-06-14T11:39:55;7.13;;;3.47;;
7669;SDS011;3877;42.562;27.636;2023-06-14T11:42:22;5.45;;;3.15;;
7669;SDS011;3877;42.562;27.636;2023-06-14T11:44:49;9.60;;;3.78;;
7669;SDS011;3877;42.562;27.636;2023-06-14T11:47:16;5.40;;;3.00;;
7669;SDS011;3877;42.562;27.636;2023-06-14T11:49:43;6.00;;;3.80;;
7669;SDS011;3877;42.562;27.636;2023-06-14T11:52:11;8.70;;;3.40;;
7669;SDS011;3877;42.562;27.636;2023-06-14T11:54:38;4.60;;;3.60;;
7669;SDS011;3877;42.562;27.636;2023-06-14T11:57:06;8.05;;;3.58;;
7669;SDS011;3877;42.562;27.636;2023-06-14T11:59:37;9.48;;;3.03;;
7669;SDS011;3877;42.562;27.636;2023-06-14T12:02:04;8.65;;;3.80;;
7669;SDS011;3877;42.562;27.636;2023-06-14T12:04:31;4.82;;;3.25;;
7669;SDS011;3877;42.562;27.636;2023-06-14T12:07:08;6.93;;;3.53;;
7669;SDS011;3877;42.562;27.636;2023-06-14T12:09:37;5.40;;;3.60;;
7669;SDS011;3877;42.562;27.636;2023-06-14T12:12:05;6.15;;;4.00;;
7669;SDS011;3877;42.562;27.636;2023-06-14T12:14:32;5.25;;;3.95;;
7669;SDS011;3877;42.562;27.636;2023-06-14T12:17:04;6.88;;;3.10;;
7669;SDS011;3877;42.562;27.636;2023-06-14T12:19:31;8.23;;;3.70;;
7669;SDS011;3877;42.562;27.636;2023-06-14T12:21:59;4.85;;;3.60;;
7669;SDS011;3877;42.562;27.636;2023-06-14T12:24:27;4.97;;;3.90;;
7669;SDS011;3877;42.562;27.636;2023-06-14T12:26:56;3.88;;;3.03;;
7669;SDS011;3877;42.562;27.636;2023-06-14T12:29:24;6.38;;;3.75;;
7669;SDS011;3877;42.562;27.636;2023-06-14T12:31:51;5.05;;;3.58;;
7669;SDS011;3877;42.562;27.636;2023-06-14T12:34:19;7.30;;;3.72;;
7669;SDS011;3877;42.562;27.636;2023-06-14T12:36:46;5.95;;;3.38;;
7669;SDS011;3877;42.562;27.636;2023-06-14T12:39:13;4.28;;;3.75;;
7669;SDS011;3877;42.562;27.636;2023-06-14T12:41:40;5.93;;;3.72;;
7669;SDS011;3877;42.562;27.636;2023-06-14T12:44:09;6.22;;;3.78;;
7669;SDS011;3877;42.562;27.636;2023-06-14T12:46:36;7.47;;;3.95;;
7669;SDS011;3877;42.562;27.636;2023-06-14T12:49:04;10.77;;;4.05;;
7669;SDS011;3877;42.562;27.636;2023-06-14T12:51:31;6.63;;;4.25;;
7669;SDS011;3877;42.562;27.636;2023-06-14T12:53:58;6.53;;;3.83;;
7669;SDS011;3877;42.562;27.636;2023-06-14T12:56:25;8.98;;;3.85;;
7669;SDS011;3877;42.562;27.636;2023-06-14T12:58:52;7.43;;;3.80;;
7669;SDS011;3877;42.562;27.636;2023-06-14T13:01:20;10.25;;;4.55;;
7669;SDS011;3877;42.562;27.636;2023-06-14T13:03:47;8.88;;;3.65;;
7669;SDS011;3877;42.562;27.636;2023-06-14T13:06:16;8.85;;;4.03;;
7669;SDS011;3877;42.562;27.636;2023-06-14T13:08:43;6.80;;;4.00;;
7669;SDS011;3877;42.562;27.636;2023-06-14T13:11:10;8.57;;;3.47;;
7669;SDS011;3877;42.562;27.636;2023-06-14T13:13:37;7.78;;;3.72;;
7669;SDS011;3877;42.562;27.636;2023-06-14T13:16:04;5.95;;;4.10;;
7669;SDS011;3877;42.562;27.636;2023-06-14T13:18:32;4.70;;;3.72;;
7669;SDS011;3877;42.562;27.636;2023-06-14T13:21:00;15.15;;;4.22;;
7669;SDS011;3877;42.562;27.636;2023-06-14T13:23:27;7.10;;;4.20;;
7669;SDS011;3877;42.562;27.636;2023-06-14T13:25:53;10.88;;;4.18;;
7669;SDS011;3877;42.562;27.636;2023-06-14T13:28:20;9.63;;;4.20;;
7669;SDS011;3877;42.562;27.636;2023-06-14T13:30:47;7.90;;;3.88;;
7669;SDS011;3877;42.562;27.636;2023-06-14T13:33:14;5.60;;;4.05;;
7669;SDS011;3877;42.562;27.636;2023-06-14T13:35:42;7.70;;;4.47;;
7669;SDS011;3877;42.562;27.636;2023-06-14T13:38:09;9.27;;;3.90;;
7669;SDS011;3877;42.562;27.636;2023-06-14T13:40:36;7.30;;;4.00;;
7669;SDS011;3877;42.562;27.636;2023-06-14T13:43:03;7.55;;;4.60;;
7669;SDS011;3877;42.562;27.636;2023-06-14T13:45:29;5.97;;;4.28;;
7669;SDS011;3877;42.562;27.636;2023-06-14T13:47:56;8.82;;;4.70;;
7669;SDS011;3877;42.562;27.636;2023-06-14T13:50:23;5.18;;;4.40;;
7669;SDS011;3877;42.562;27.636;2023-06-14T13:52:51;7.25;;;4.05;;
7669;SDS011;3877;42.562;27.636;2023-06-14T13:55:18;10.38;;;4.53;;
7669;SDS011;3877;42.562;27.636;2023-06-14T13:57:45;7.03;;;4.32;;
7669;SDS011;3877;42.562;27.636;2023-06-14T14:00:12;7.60;;;4.30;;
7669;SDS011;3877;42.562;27.636;2023-06-14T14:02:39;9.20;;;4.20;;
7669;SDS011;3877;42.562;27.636;2023-06-14T14:05:06;13.95;;;4.88;;
7669;SDS011;3877;42.562;27.636;2023-06-14T14:07:33;6.82;;;4.28;;
7669;SDS011;3877;42.562;27.636;2023-06-14T14:10:03;8.20;;;5.00;;
7669;SDS011;3877;42.562;27.636;2023-06-14T14:12:29;7.53;;;4.10;;
7669;SDS011;3877;42.562;27.636;2023-06-14T14:14:56;7.03;;;4.70;;
7669;SDS011;3877;42.562;27.636;2023-06-14T14:17:23;7.28;;;4.47;;
7669;SDS011;3877;42.562;27.636;2023-06-14T14:19:50;6.45;;;4.40;;
7669;SDS011;3877;42.562;27.636;2023-06-14T14:22:17;8.52;;;4.88;;
7669;SDS011;3877;42.562;27.636;2023-06-14T14:24:44;6.95;;;4.38;;
7669;SDS011;3877;42.562;27.636;2023-06-14T14:27:12;14.30;;;4.95;;
7669;SDS011;3877;42.562;27.636;2023-06-14T14:29:39;10.50;;;5.00;;
7669;SDS011;3877;42.562;27.636;2023-06-14T14:32:06;8.18;;;4.55;;
7669;SDS011;3877;42.562;27.636;2023-06-14T14:34:33;6.15;;;4.75;;
7669;SDS011;3877;42.562;27.636;2023-06-14T14:37:00;6.10;;;3.95;;
7669;SDS011;3877;42.562;27.636;2023-06-14T14:39:27;5.57;;;4.70;;
7669;SDS011;3877;42.562;27.636;2023-06-14T14:41:53;10.30;;;4.40;;
7669;SDS011;3877;42.562;27.636;2023-06-14T14:44:21;9.13;;;4.43;;
7669;SDS011;3877;42.562;27.636;2023-06-14T14:46:48;7.25;;;4.15;;
7669;SDS011;3877;42.562;27.636;2023-06-14T14:49:15;6.03;;;4.28;;
7669;SDS011;3877;42.562;27.636;2023-06-14T14:51:42;5.07;;;4.57;;
7669;SDS011;3877;42.562;27.636;2023-06-14T14:54:09;7.28;;;4.70;;
7669;SDS011;3877;42.562;27.636;2023-06-14T14:56:36;8.10;;;4.80;;
7669;SDS011;3877;42.562;27.636;2023-06-14T14:59:04;8.02;;;4.60;;
7669;SDS011;3877;42.562;27.636;2023-06-14T15:01:32;8.60;;;4.85;;
7669;SDS011;3877;42.562;27.636;2023-06-14T15:03:59;8.90;;;4.88;;
7669;SDS011;3877;42.562;27.636;2023-06-14T15:06:26;7.78;;;4.32;;